Terminal Aerodrome Forecast
Issued by NWS

Home | Current Version | Previous Version | Text Only | Print | Product List | Glossary On
Versions: 1 2 3 4 5 6 7 8 9 10 11 12 13 14 15 16 17
690
FTUS43 KGRB 252111 AAB
TAFAUW
TAF AMD
KAUW 252111Z 2521/2618 16012KT P6SM VCTS SCT035 BKN100CB
     FM260000 18007KT P6SM BKN120
     FM260800 20005KT P6SM BKN030 PROB30 2608/2612 4SM -TSRA
      OVC007CB
     FM261300 22006KT P6SM OVC015=

USA.gov is the U.S. government's official web portal to all federal, state and local government web resources and services.